createdAt,value
2023-04-18T00:00:18.796Z,19.2
2023-04-18T00:01:34.913Z,19.2
2023-04-18T00:02:51.044Z,19.2
2023-04-18T00:04:07.180Z,19.2
2023-04-18T00:05:23.335Z,19.2
2023-04-18T00:06:39.470Z,19.2
2023-04-18T00:07:55.589Z,19.2
2023-04-18T00:09:11.726Z,19.2
2023-04-18T00:10:27.923Z,19.2
2023-04-18T00:11:43.182Z,19.2
2023-04-18T00:12:58.383Z,19.2
2023-04-18T00:14:13.535Z,19.2
2023-04-18T00:15:29.682Z,19.2
2023-04-18T00:16:45.819Z,19.2
2023-04-18T00:18:01.936Z,19.2
2023-04-18T00:19:18.081Z,19.2
2023-04-18T00:20:34.220Z,19.2
2023-04-18T00:21:50.347Z,19.2
2023-04-18T00:23:06.488Z,19.2
2023-04-18T00:24:22.615Z,19.2
2023-04-18T00:25:38.746Z,19.2
2023-04-18T00:26:54.905Z,19.2
2023-04-18T00:28:11.029Z,19.2
2023-04-18T00:29:27.159Z,19.2
2023-04-18T00:30:43.290Z,19.2
2023-04-18T00:31:59.423Z,19.2
2023-04-18T00:33:15.577Z,19.2
2023-04-18T00:34:31.713Z,19.2
2023-04-18T00:35:47.850Z,19.2
2023-04-18T00:37:03.968Z,19.2
2023-04-18T00:38:20.116Z,19.2
2023-04-18T00:39:36.256Z,19.2
2023-04-18T00:40:52.384Z,19.2
2023-04-18T00:42:08.533Z,19.2
2023-04-18T00:43:24.648Z,19.2
2023-04-18T00:44:40.782Z,19.2
2023-04-18T00:45:56.940Z,19.2
2023-04-18T00:47:13.063Z,19.2
2023-04-18T00:48:29.210Z,19.2
2023-04-18T00:49:45.333Z,19.2
2023-04-18T00:51:01.476Z,19.2
2023-04-18T00:52:17.626Z,19.2
2023-04-18T00:53:33.759Z,19.2
2023-04-18T00:54:49.881Z,19.2
2023-04-18T00:56:06.024Z,19.2
2023-04-18T00:57:22.141Z,19.1
2023-04-18T00:58:38.294Z,19.1
2023-04-18T00:59:54.426Z,19.1
2023-04-18T01:01:10.621Z,19.1
2023-04-18T01:02:25.860Z,19.1
2023-04-18T01:03:41.064Z,19.1
2023-04-18T01:04:57.193Z,19.1
2023-04-18T01:06:13.325Z,19.1
2023-04-18T01:07:29.464Z,19.1
2023-04-18T01:08:45.619Z,19.2
2023-04-18T01:10:01.740Z,19.2
2023-04-18T01:11:17.872Z,19.2
2023-04-18T01:12:34.008Z,19.2
2023-04-18T01:13:50.142Z,19.1
2023-04-18T01:15:06.285Z,19.2
2023-04-18T01:16:22.422Z,19.2
2023-04-18T01:17:38.561Z,19.2
2023-04-18T01:18:54.688Z,19.1
2023-04-18T01:20:10.830Z,19.2
2023-04-18T01:21:26.984Z,19.1
2023-04-18T01:22:43.112Z,19.1
2023-04-18T01:23:59.247Z,19.1
2023-04-18T01:25:15.377Z,19.2
2023-04-18T01:26:31.500Z,19.2
2023-04-18T01:27:47.659Z,19.2
2023-04-18T01:29:03.796Z,19.1
2023-04-18T01:30:19.909Z,19.2
2023-04-18T01:31:36.045Z,19.2
2023-04-18T01:32:52.180Z,19.1
2023-04-18T01:34:08.327Z,19.1
2023-04-18T01:35:24.524Z,19.1
2023-04-18T01:36:39.770Z,19.1
2023-04-18T01:37:55.946Z,19.1
2023-04-18T01:39:11.170Z,19.1
2023-04-18T01:40:27.294Z,19.1
2023-04-18T01:41:43.417Z,19.1
2023-04-18T01:42:59.570Z,19.1
2023-04-18T01:44:15.717Z,19.1
2023-04-18T01:45:31.831Z,19.1
2023-04-18T01:46:47.975Z,19.1
2023-04-18T01:48:04.103Z,19.1
2023-04-18T01:49:20.241Z,19.1
2023-04-18T01:50:36.393Z,19.1
2023-04-18T01:51:52.529Z,19.1
2023-04-18T01:53:08.646Z,19.1
2023-04-18T01:54:24.794Z,19.1
2023-04-18T01:55:40.921Z,19.1
2023-04-18T01:56:57.065Z,19.1
2023-04-18T01:58:13.191Z,19.1
2023-04-18T01:59:29.333Z,19.1
2023-04-18T02:00:45.459Z,19.1
2023-04-18T02:02:01.590Z,19.1
2023-04-18T02:03:17.744Z,19.1
2023-04-18T02:04:33.887Z,19.1
2023-04-18T02:05:50.008Z,19.1
2023-04-18T02:07:06.137Z,19.1
2023-04-18T02:08:22.268Z,19.1
2023-04-18T02:09:38.425Z,19.1
2023-04-18T02:10:54.616Z,19.1
2023-04-18T02:12:09.848Z,19.1
2023-04-18T02:13:25.071Z,19.1
2023-04-18T02:14:41.190Z,19.1
2023-04-18T02:15:57.332Z,19.1
2023-04-18T02:17:13.458Z,19.1
2023-04-18T02:18:29.587Z,19.1
2023-04-18T02:19:45.739Z,19.1
2023-04-18T02:21:01.884Z,19.1
2023-04-18T02:22:18.013Z,19.1
2023-04-18T02:23:34.135Z,19.1
2023-04-18T02:24:50.279Z,19.1
2023-04-18T02:26:06.425Z,19.1
2023-04-18T02:27:22.564Z,19.1
2023-04-18T02:28:38.695Z,19.1
2023-04-18T02:29:54.815Z,19.1
2023-04-18T02:31:10.965Z,19.1
2023-04-18T02:32:27.095Z,19.1
2023-04-18T02:33:43.243Z,19.1
2023-04-18T02:34:59.367Z,19.1
2023-04-18T02:36:15.496Z,19.1
2023-04-18T02:37:31.627Z,19.1
2023-04-18T02:38:47.781Z,19.1
2023-04-18T02:40:03.924Z,19.1
2023-04-18T02:41:20.047Z,19.1
2023-04-18T02:42:36.187Z,19.1
2023-04-18T02:43:52.322Z,19.1
2023-04-18T02:45:08.514Z,19.1
2023-04-18T02:46:23.766Z,19.1
2023-04-18T02:47:38.970Z,19
2023-04-18T02:48:55.106Z,19
2023-04-18T02:50:11.232Z,19
2023-04-18T02:51:27.382Z,19
2023-04-18T02:52:43.512Z,19
2023-04-18T02:53:59.635Z,19
2023-04-18T02:55:15.783Z,19
2023-04-18T02:56:31.915Z,19
2023-04-18T02:57:48.047Z,19
2023-04-18T02:59:04.189Z,19
2023-04-18T03:00:20.329Z,19
2023-04-18T03:01:36.465Z,19
2023-04-18T03:02:52.610Z,19
2023-04-18T03:04:08.735Z,19
2023-04-18T03:05:24.876Z,19
2023-04-18T03:06:40.992Z,19
2023-04-18T03:07:57.155Z,19
2023-04-18T03:09:13.279Z,19
2023-04-18T03:10:29.404Z,19
2023-04-18T03:11:45.548Z,19
2023-04-18T03:13:01.677Z,19
2023-04-18T03:14:17.830Z,19
2023-04-18T03:15:33.950Z,19
2023-04-18T03:16:50.090Z,19
2023-04-18T03:18:06.216Z,19
2023-04-18T03:19:22.414Z,19
2023-04-18T03:20:37.652Z,19
2023-04-18T03:21:53.844Z,19
2023-04-18T03:23:09.122Z,19
2023-04-18T03:24:24.345Z,19
2023-04-18T03:25:39.563Z,19
2023-04-18T03:26:54.710Z,19
2023-04-18T03:28:10.852Z,19
2023-04-18T03:29:26.972Z,19
2023-04-18T03:30:43.109Z,19
2023-04-18T03:31:59.237Z,19
2023-04-18T03:33:15.388Z,19
2023-04-18T03:34:31.525Z,19
2023-04-18T03:35:47.657Z,19
2023-04-18T03:37:03.784Z,19
2023-04-18T03:38:19.913Z,19
2023-04-18T03:39:36.062Z,19
2023-04-18T03:40:52.195Z,19
2023-04-18T03:42:08.331Z,19
2023-04-18T03:43:24.460Z,19
2023-04-18T03:44:40.594Z,19
2023-04-18T03:45:56.746Z,19
2023-04-18T03:47:12.882Z,19
2023-04-18T03:48:29.007Z,19
2023-04-18T03:49:45.158Z,19
2023-04-18T03:51:01.285Z,19
2023-04-18T03:52:17.424Z,19
2023-04-18T03:53:33.570Z,19
2023-04-18T03:54:49.689Z,19
2023-04-18T03:56:05.825Z,19
2023-04-18T03:57:21.960Z,19
2023-04-18T03:58:38.110Z,19
2023-04-18T03:59:54.240Z,19
2023-04-18T04:01:10.381Z,19
2023-04-18T04:02:26.504Z,19
2023-04-18T04:03:42.649Z,19
2023-04-18T04:04:58.791Z,19
2023-04-18T04:06:14.930Z,19
2023-04-18T04:07:31.063Z,19
2023-04-18T04:08:47.179Z,19
2023-04-18T04:10:03.314Z,19
2023-04-18T04:11:19.467Z,19
2023-04-18T04:12:35.594Z,18.9
2023-04-18T04:13:51.785Z,18.9
2023-04-18T04:15:07.001Z,18.9
2023-04-18T04:16:23.144Z,18.9
2023-04-18T04:17:39.275Z,19
2023-04-18T04:18:55.414Z,19
2023-04-18T04:20:11.540Z,19
2023-04-18T04:21:27.668Z,19
2023-04-18T04:22:43.832Z,19
2023-04-18T04:23:59.960Z,19
2023-04-18T04:25:16.089Z,19
2023-04-18T04:26:32.226Z,19
2023-04-18T04:27:48.366Z,19
2023-04-18T04:29:04.510Z,19
2023-04-18T04:30:20.646Z,19
2023-04-18T04:31:36.776Z,19
2023-04-18T04:32:52.896Z,19
2023-04-18T04:34:09.033Z,19
2023-04-18T04:35:25.185Z,19
2023-04-18T04:36:41.319Z,19
2023-04-18T04:37:57.446Z,19
2023-04-18T04:39:13.584Z,19
2023-04-18T04:40:29.722Z,19
2023-04-18T04:41:45.857Z,19
2023-04-18T04:43:02.005Z,19
2023-04-18T04:44:18.125Z,19
2023-04-18T04:45:34.257Z,19
2023-04-18T04:46:50.466Z,19
2023-04-18T04:48:05.673Z,19
2023-04-18T04:49:20.820Z,19
2023-04-18T04:50:36.957Z,19
2023-04-18T04:51:53.104Z,19
2023-04-18T04:53:09.232Z,19
2023-04-18T04:54:25.356Z,19
2023-04-18T04:55:41.495Z,19
2023-04-18T04:56:57.624Z,19
2023-04-18T04:58:13.780Z,19.1
2023-04-18T04:59:29.911Z,19.1
2023-04-18T05:00:46.034Z,19.1
2023-04-18T05:02:02.178Z,19.1
2023-04-18T05:03:18.314Z,19.1
2023-04-18T05:04:34.459Z,19.1
2023-04-18T05:05:50.591Z,19.1
2023-04-18T05:07:06.715Z,19.1
2023-04-18T05:08:22.855Z,19.1
2023-04-18T05:09:38.991Z,19.1
2023-04-18T05:10:55.129Z,19.1
2023-04-18T05:12:11.268Z,19.1
2023-04-18T05:13:27.406Z,19.1
2023-04-18T05:14:43.531Z,19.1
2023-04-18T05:15:59.673Z,19.1
2023-04-18T05:17:15.813Z,19.1
2023-04-18T05:18:31.957Z,19.1
2023-04-18T05:19:48.078Z,19.1
2023-04-18T05:21:04.207Z,19.1
2023-04-18T05:22:20.342Z,19.1
2023-04-18T05:23:36.505Z,19.1
2023-04-18T05:24:52.630Z,19.1
2023-04-18T05:26:08.766Z,19.1
2023-04-18T05:27:24.894Z,19.2
2023-04-18T05:28:41.029Z,19.2
2023-04-18T05:29:57.174Z,19.2
2023-04-18T05:31:13.317Z,19.2
2023-04-18T05:32:29.449Z,19.2
2023-04-18T05:33:45.571Z,19.2
2023-04-18T05:35:01.709Z,19.2
2023-04-18T05:36:17.908Z,19.2
2023-04-18T05:37:33.131Z,19.2
2023-04-18T05:38:48.267Z,19.3
2023-04-18T05:40:04.414Z,19.3
2023-04-18T05:41:20.555Z,19.3
2023-04-18T05:42:36.689Z,19.4
2023-04-18T05:43:52.812Z,19.5
2023-04-18T05:45:08.947Z,19.5
2023-04-18T05:46:25.111Z,19.6
2023-04-18T05:47:41.243Z,19.6
2023-04-18T05:48:57.370Z,19.7
2023-04-18T05:50:13.501Z,19.7
2023-04-18T05:51:29.639Z,19.8
2023-04-18T05:52:45.788Z,19.8
2023-04-18T05:54:01.909Z,19.8
2023-04-18T05:55:18.057Z,19.9
2023-04-18T05:56:34.177Z,19.9
2023-04-18T05:57:50.310Z,19.9
2023-04-18T05:59:06.465Z,20
2023-04-18T06:00:22.599Z,20
2023-04-18T06:01:38.724Z,20.1
2023-04-18T06:02:54.856Z,20.1
2023-04-18T06:04:10.983Z,20.1
2023-04-18T06:05:27.149Z,20.2
2023-04-18T06:06:43.279Z,20.2
2023-04-18T06:07:59.415Z,20.2
2023-04-18T06:09:15.549Z,20.3
2023-04-18T06:10:31.673Z,20.3
2023-04-18T06:11:47.830Z,20.4
2023-04-18T06:13:03.949Z,20.4
2023-04-18T06:14:20.091Z,20.5
2023-04-18T06:15:36.227Z,20.6
2023-04-18T06:16:52.358Z,20.6
2023-04-18T06:18:08.505Z,20.7
2023-04-18T06:19:24.640Z,20.7
2023-04-18T06:20:40.766Z,20.8
2023-04-18T06:21:56.909Z,20.8
2023-04-18T06:23:13.027Z,20.9
2023-04-18T06:24:29.184Z,20.9
2023-04-18T06:25:45.378Z,21
2023-04-18T06:27:00.609Z,21
2023-04-18T06:28:15.812Z,21.1
2023-04-18T06:29:31.953Z,21.1
2023-04-18T06:30:48.081Z,21.1
2023-04-18T06:32:04.223Z,21.2
2023-04-18T06:33:20.356Z,21.2
2023-04-18T06:34:36.502Z,21.2
2023-04-18T06:35:52.641Z,21.3
2023-04-18T06:37:08.771Z,21.3
2023-04-18T06:38:24.904Z,21.3
2023-04-18T06:39:41.031Z,21.3
2023-04-18T06:40:57.188Z,21.4
2023-04-18T06:42:13.309Z,21.4
2023-04-18T06:43:29.450Z,21.5
2023-04-18T06:44:45.585Z,21.5
2023-04-18T06:46:01.712Z,21.6
2023-04-18T06:47:17.858Z,21.6
2023-04-18T06:48:34.008Z,21.7
2023-04-18T06:49:50.128Z,21.8
2023-04-18T06:51:06.271Z,21.9
2023-04-18T06:52:22.395Z,21.9
2023-04-18T06:53:38.539Z,21.9
2023-04-18T06:54:54.679Z,22
2023-04-18T06:56:10.808Z,22.1
2023-04-18T06:57:26.953Z,22.1
2023-04-18T06:58:43.084Z,22.2
2023-04-18T06:59:59.287Z,22.2
2023-04-18T07:01:14.529Z,22.2
2023-04-18T07:02:29.741Z,22.2
2023-04-18T07:03:45.877Z,22.3
2023-04-18T07:05:01.997Z,22.3
2023-04-18T07:06:18.143Z,22.3
2023-04-18T07:07:34.267Z,22.3
2023-04-18T07:08:50.405Z,22.4
2023-04-18T07:10:06.550Z,22.4
2023-04-18T07:11:22.693Z,22.5
2023-04-18T07:12:38.820Z,22.6
2023-04-18T07:13:54.950Z,22.6
2023-04-18T07:15:11.095Z,22.6
2023-04-18T07:16:27.228Z,22.7
2023-04-18T07:17:43.361Z,22.7
2023-04-18T07:18:59.496Z,22.8
2023-04-18T07:20:15.645Z,22.8
2023-04-18T07:21:31.775Z,22.8
2023-04-18T07:22:47.907Z,22.8
2023-04-18T07:24:04.058Z,22.8
2023-04-18T07:25:20.190Z,22.8
2023-04-18T07:26:36.322Z,22.8
2023-04-18T07:27:52.459Z,22.8
2023-04-18T07:29:08.601Z,22.8
2023-04-18T07:30:24.732Z,22.8
2023-04-18T07:31:40.863Z,22.8
2023-04-18T07:32:56.989Z,22.8
2023-04-18T07:34:13.191Z,22.8
2023-04-18T07:35:28.422Z,22.8
2023-04-18T07:36:43.632Z,22.9
2023-04-18T07:37:59.763Z,22.9
2023-04-18T07:39:15.915Z,22.9
2023-04-18T07:40:32.044Z,22.9
2023-04-18T07:41:48.186Z,22.9
2023-04-18T07:43:04.306Z,22.9
2023-04-18T07:44:20.448Z,22.9
2023-04-18T07:45:36.594Z,22.9
2023-04-18T07:46:52.732Z,22.9
2023-04-18T07:48:08.863Z,22.9
2023-04-18T07:49:24.996Z,22.9
2023-04-18T07:50:41.121Z,22.9
2023-04-18T07:51:57.279Z,22.9
2023-04-18T07:53:13.416Z,22.8
2023-04-18T07:54:29.543Z,22.8
2023-04-18T07:55:45.686Z,22.8
2023-04-18T07:57:01.812Z,22.8
2023-04-18T07:58:17.952Z,22.8
2023-04-18T07:59:34.091Z,22.8
2023-04-18T08:00:50.226Z,22.9
2023-04-18T08:02:06.357Z,22.9
2023-04-18T08:03:22.500Z,22.9
2023-04-18T08:04:38.649Z,22.9
2023-04-18T08:05:54.776Z,22.9
2023-04-18T08:07:10.914Z,23
2023-04-18T08:08:27.109Z,23
2023-04-18T08:09:42.328Z,22.9
2023-04-18T08:10:57.541Z,22.9
2023-04-18T08:12:12.687Z,22.9
2023-04-18T08:13:28.834Z,22.9
2023-04-18T08:14:44.977Z,23
2023-04-18T08:16:01.104Z,23
2023-04-18T08:17:17.242Z,23
2023-04-18T08:18:33.370Z,23
2023-04-18T08:19:49.526Z,23.1
2023-04-18T08:21:05.665Z,23.2
2023-04-18T08:22:21.790Z,23.2
2023-04-18T08:23:37.919Z,23.2
2023-04-18T08:24:54.062Z,23.3
2023-04-18T08:26:10.201Z,23.3
2023-04-18T08:27:26.345Z,23.4
2023-04-18T08:28:42.481Z,23.5
2023-04-18T08:29:58.605Z,23.6
2023-04-18T08:31:14.735Z,23.6
2023-04-18T08:32:30.893Z,23.7
2023-04-18T08:33:47.021Z,23.9
2023-04-18T08:35:03.148Z,24
2023-04-18T08:36:19.291Z,24.2
2023-04-18T08:37:35.429Z,24.3
2023-04-18T08:38:51.565Z,24.4
2023-04-18T08:40:07.698Z,24.5
2023-04-18T08:41:23.843Z,24.5
2023-04-18T08:42:39.964Z,24.7
2023-04-18T08:43:56.095Z,24.8
2023-04-18T08:45:12.252Z,24.9
2023-04-18T08:46:28.384Z,24.9
2023-04-18T08:47:44.519Z,24.8
2023-04-18T08:49:00.661Z,24.8
2023-04-18T08:50:16.786Z,24.8
2023-04-18T08:51:32.930Z,24.8
2023-04-18T08:52:49.071Z,24.8
2023-04-18T08:54:05.191Z,24.8
2023-04-18T08:55:21.343Z,24.9
2023-04-18T08:56:37.458Z,24.9
2023-04-18T08:57:53.604Z,25.1
2023-04-18T08:59:09.817Z,25.2
2023-04-18T09:00:25.036Z,25.3
2023-04-18T09:01:40.255Z,25.3
2023-04-18T09:02:56.397Z,25.3
2023-04-18T09:04:12.522Z,25.3
2023-04-18T09:05:28.653Z,25.2
2023-04-18T09:06:44.789Z,25.2
2023-04-18T09:08:00.936Z,25.1
2023-04-18T09:09:17.066Z,25
2023-04-18T09:10:33.202Z,24.8
2023-04-18T09:11:49.342Z,24.8
2023-04-18T09:13:05.477Z,24.7
2023-04-18T09:14:21.624Z,24.6
2023-04-18T09:15:37.754Z,24.5
2023-04-18T09:16:53.880Z,24.3
2023-04-18T09:18:10.014Z,24.3
2023-04-18T09:19:26.162Z,24.2
2023-04-18T09:20:42.300Z,24.1
2023-04-18T09:21:58.428Z,24
2023-04-18T09:23:14.566Z,24
2023-04-18T09:24:30.706Z,23.9
2023-04-18T09:25:46.834Z,23.9
2023-04-18T09:27:02.973Z,23.8
2023-04-18T09:28:19.123Z,23.8
2023-04-18T09:29:35.241Z,23.8
2023-04-18T09:30:51.380Z,23.7
2023-04-18T09:32:07.510Z,23.7
2023-04-18T09:33:23.714Z,23.7
2023-04-18T09:34:38.977Z,23.6
2023-04-18T09:35:55.177Z,23.6
2023-04-18T09:37:10.376Z,23.6
2023-04-18T09:38:26.511Z,23.5
2023-04-18T09:39:42.000Z,23.5
2023-04-18T09:40:58.777Z,23.4
2023-04-18T09:42:14.914Z,23.4
2023-04-18T09:43:31.066Z,23.4
2023-04-18T09:44:47.197Z,23.4
2023-04-18T09:46:03.328Z,23.3
2023-04-18T09:47:19.462Z,23.3
2023-04-18T09:48:35.589Z,23.3
2023-04-18T09:49:51.745Z,23.3
2023-04-18T09:51:07.878Z,23.2
2023-04-18T09:52:24.001Z,23.2
2023-04-18T09:53:40.138Z,23.2
2023-04-18T09:54:56.270Z,23.2
2023-04-18T09:56:12.412Z,23.1
2023-04-18T09:57:28.563Z,23.1
2023-04-18T09:58:44.681Z,23.1
2023-04-18T10:00:00.815Z,23
2023-04-18T10:01:16.955Z,23
2023-04-18T10:02:33.095Z,23
2023-04-18T10:03:49.246Z,22.9
2023-04-18T10:05:05.367Z,22.9
2023-04-18T10:06:21.502Z,22.9
2023-04-18T10:07:37.638Z,22.9
2023-04-18T10:08:53.836Z,22.8
2023-04-18T10:10:09.085Z,22.8
2023-04-18T10:11:24.353Z,22.8
2023-04-18T10:12:39.583Z,22.7
2023-04-18T10:13:54.793Z,22.7
2023-04-18T10:15:10.927Z,22.7
2023-04-18T10:16:27.080Z,22.7
2023-04-18T10:17:43.207Z,22.7
2023-04-18T10:18:59.358Z,22.7
2023-04-18T10:20:15.491Z,22.7
2023-04-18T10:21:31.616Z,22.7
2023-04-18T10:22:47.759Z,22.7
2023-04-18T10:24:03.904Z,22.6
2023-04-18T10:25:20.040Z,22.6
2023-04-18T10:26:36.169Z,22.6
2023-04-18T10:27:52.294Z,22.6
2023-04-18T10:29:08.454Z,22.6
2023-04-18T10:30:24.581Z,22.6
2023-04-18T10:31:40.715Z,22.6
2023-04-18T10:32:56.844Z,22.6
2023-04-18T10:34:12.987Z,22.5
2023-04-18T10:35:29.121Z,22.5
2023-04-18T10:36:45.268Z,22.5
2023-04-18T10:38:01.396Z,22.5
2023-04-18T10:39:17.535Z,22.6
2023-04-18T10:40:33.658Z,22.5
2023-04-18T10:41:49.821Z,22.5
2023-04-18T10:43:05.947Z,22.5
2023-04-18T10:44:22.078Z,22.5
2023-04-18T10:45:38.273Z,22.5
2023-04-18T10:46:53.479Z,22.5
2023-04-18T10:48:09.613Z,22.5
2023-04-18T10:49:25.745Z,22.5
2023-04-18T10:50:41.874Z,22.5
2023-04-18T10:51:58.008Z,22.5
2023-04-18T10:53:14.161Z,22.5
2023-04-18T10:54:30.291Z,22.5
2023-04-18T10:55:46.423Z,22.6
2023-04-18T10:57:02.560Z,22.6
2023-04-18T10:58:18.691Z,22.6
2023-04-18T10:59:34.847Z,22.6
2023-04-18T11:00:50.965Z,22.6
2023-04-18T11:02:07.114Z,22.6
2023-04-18T11:03:23.251Z,22.6
2023-04-18T11:04:39.372Z,22.6
2023-04-18T11:05:55.523Z,22.6
2023-04-18T11:07:11.648Z,22.7
2023-04-18T11:08:27.779Z,22.7
2023-04-18T11:09:43.931Z,22.7
2023-04-18T11:11:00.063Z,22.8
2023-04-18T11:12:16.197Z,22.8
2023-04-18T11:13:32.344Z,23
2023-04-18T11:14:48.480Z,23
2023-04-18T11:16:04.595Z,23
2023-04-18T11:17:20.733Z,23
2023-04-18T11:18:36.948Z,23
2023-04-18T11:19:52.186Z,23
2023-04-18T11:21:07.392Z,23
2023-04-18T11:22:23.535Z,23.1
2023-04-18T11:23:39.664Z,23.4
2023-04-18T11:24:55.795Z,23.5
2023-04-18T11:26:11.940Z,23.7
2023-04-18T11:27:28.062Z,23.8
2023-04-18T11:28:44.214Z,24.1
2023-04-18T11:30:00.344Z,24.2
2023-04-18T11:31:16.478Z,24.4
2023-04-18T11:32:32.616Z,24.5
2023-04-18T11:33:48.742Z,24.5
2023-04-18T11:35:04.889Z,24.5
2023-04-18T11:36:21.027Z,24.4
2023-04-18T11:38:53.301Z,24.5
2023-04-18T11:40:09.428Z,24.5
2023-04-18T11:41:25.583Z,24.4
2023-04-18T11:42:41.711Z,24.3
2023-04-18T11:43:57.851Z,24.2
2023-04-18T11:45:13.983Z,24.1
2023-04-18T11:46:30.108Z,24
2023-04-18T11:47:46.257Z,23.9
2023-04-18T11:49:02.384Z,23.9
2023-04-18T11:50:18.525Z,23.9
2023-04-18T11:51:34.660Z,23.9
2023-04-18T11:52:50.849Z,24
2023-04-18T11:54:06.092Z,24
2023-04-18T11:55:21.291Z,24
2023-04-18T11:56:37.440Z,24
2023-04-18T11:57:53.576Z,24
2023-04-18T11:59:09.708Z,24
2023-04-18T12:00:25.843Z,24
2023-04-18T12:01:41.972Z,24
2023-04-18T12:02:58.105Z,24
2023-04-18T12:04:14.254Z,24
2023-04-18T12:05:30.388Z,24
2023-04-18T12:06:46.520Z,24
2023-04-18T12:08:02.656Z,24
2023-04-18T12:09:18.798Z,23.9
2023-04-18T12:10:34.940Z,23.9
2023-04-18T12:11:51.073Z,24
2023-04-18T12:13:07.202Z,24
2023-04-18T12:14:23.337Z,24
2023-04-18T12:15:39.471Z,24.1
2023-04-18T12:16:55.625Z,24.1
2023-04-18T12:18:11.767Z,24
2023-04-18T12:19:27.888Z,24
2023-04-18T12:20:44.023Z,24
2023-04-18T12:22:00.162Z,24
2023-04-18T12:23:16.308Z,24
2023-04-18T12:24:32.437Z,23.9
2023-04-18T12:25:48.571Z,23.9
2023-04-18T12:27:04.760Z,23.9
2023-04-18T12:28:20.013Z,23.9
2023-04-18T12:29:35.204Z,23.9
2023-04-18T12:30:50.363Z,23.9
2023-04-18T12:32:06.502Z,24
2023-04-18T12:33:22.648Z,23.9
2023-04-18T12:34:38.767Z,23.9
2023-04-18T12:35:54.918Z,23.9
2023-04-18T12:37:11.050Z,23.9
2023-04-18T12:38:27.198Z,23.9
2023-04-18T12:40:59.465Z,24
2023-04-18T12:42:15.588Z,24
2023-04-18T12:43:31.724Z,24
2023-04-18T12:44:47.872Z,24
2023-04-18T12:46:03.996Z,24.1
2023-04-18T12:47:20.134Z,24.1
2023-04-18T12:48:36.270Z,24.1
2023-04-18T12:49:52.404Z,24.1
2023-04-18T12:51:08.551Z,24
2023-04-18T12:52:24.687Z,24
2023-04-18T12:53:40.827Z,24
2023-04-18T12:54:56.957Z,24
2023-04-18T12:56:13.096Z,23.9
2023-04-18T12:57:29.239Z,23.9
2023-04-18T12:58:45.364Z,23.9
2023-04-18T13:00:01.491Z,23.9
2023-04-18T13:01:17.637Z,23.9
2023-04-18T13:02:33.765Z,23.9
2023-04-18T13:03:49.924Z,23.9
2023-04-18T13:05:06.042Z,23.9
2023-04-18T13:06:22.185Z,23.9
2023-04-18T13:07:38.317Z,23.9
2023-04-18T13:08:54.447Z,23.9
2023-04-18T13:10:10.596Z,23.8
2023-04-18T13:11:26.733Z,23.8
2023-04-18T13:12:42.868Z,23.8
2023-04-18T13:13:59.004Z,23.8
2023-04-18T13:15:15.122Z,23.8
2023-04-18T13:16:31.269Z,23.7
2023-04-18T13:17:47.478Z,23.7
2023-04-18T13:19:02.714Z,23.7
2023-04-18T13:20:17.916Z,23.6
2023-04-18T13:21:34.048Z,23.6
2023-04-18T13:22:50.190Z,23.5
2023-04-18T13:24:06.317Z,23.5
2023-04-18T13:25:22.454Z,23.5
2023-04-18T13:26:38.594Z,23.5
2023-04-18T13:27:54.717Z,23.5
2023-04-18T13:29:10.863Z,23.5
2023-04-18T13:30:27.000Z,23.5
2023-04-18T13:31:43.133Z,23.5
2023-04-18T13:32:59.274Z,23.5
2023-04-18T13:34:15.403Z,23.5
2023-04-18T13:35:31.539Z,23.5
2023-04-18T13:36:47.672Z,23.5
2023-04-18T13:38:03.812Z,23.5
2023-04-18T13:39:19.960Z,23.5
2023-04-18T13:40:36.094Z,23.5
2023-04-18T13:41:52.212Z,23.5
2023-04-18T13:43:08.360Z,23.5
2023-04-18T13:44:24.493Z,23.5
2023-04-18T13:45:40.633Z,23.6
2023-04-18T13:46:56.762Z,23.6
2023-04-18T13:48:12.912Z,23.6
2023-04-18T13:49:29.027Z,23.6
2023-04-18T13:50:45.169Z,23.6
2023-04-18T13:52:01.372Z,23.6
2023-04-18T13:53:16.630Z,23.6
2023-04-18T13:54:32.830Z,23.6
2023-04-18T13:55:48.022Z,23.6
2023-04-18T13:57:04.159Z,23.6
2023-04-18T13:58:20.293Z,23.6
2023-04-18T13:59:36.421Z,23.6
2023-04-18T14:00:52.559Z,23.6
2023-04-18T14:02:08.703Z,23.6
2023-04-18T14:03:24.841Z,23.6
2023-04-18T14:04:40.978Z,23.6
2023-04-18T14:05:57.106Z,23.5
2023-04-18T14:07:13.241Z,23.5
2023-04-18T14:08:29.385Z,23.5
2023-04-18T14:09:45.525Z,23.5
2023-04-18T14:11:01.660Z,23.5
2023-04-18T14:12:17.794Z,23.5
2023-04-18T14:13:33.927Z,23.5
2023-04-18T14:14:50.078Z,23.5
2023-04-18T14:16:06.213Z,23.5
2023-04-18T14:17:22.330Z,23.5
2023-04-18T14:18:38.473Z,23.5
2023-04-18T14:19:54.602Z,23.4
2023-04-18T14:21:10.758Z,23.5
2023-04-18T14:22:26.895Z,23.5
2023-04-18T14:23:43.018Z,23.4
2023-04-18T14:24:59.158Z,23.5
2023-04-18T14:26:15.291Z,23.5
2023-04-18T14:27:31.491Z,23.4
2023-04-18T14:28:46.735Z,23.4
2023-04-18T14:30:01.943Z,23.4
2023-04-18T14:31:18.084Z,23.4
2023-04-18T14:32:34.213Z,23.4
2023-04-18T14:33:50.351Z,23.4
2023-04-18T14:35:06.489Z,23.4
2023-04-18T14:36:22.622Z,23.4
2023-04-18T14:37:38.768Z,23.4
2023-04-18T14:38:54.897Z,23.4
2023-04-18T14:40:11.023Z,23.4
2023-04-18T14:41:27.170Z,23.4
2023-04-18T14:42:43.304Z,23.4
2023-04-18T14:43:59.433Z,23.4
2023-04-18T14:45:15.577Z,23.4
2023-04-18T14:46:31.708Z,23.3
2023-04-18T14:47:47.839Z,23.4
2023-04-18T14:49:03.974Z,23.3
2023-04-18T14:50:20.114Z,23.3
2023-04-18T14:51:36.266Z,23.3
2023-04-18T14:52:52.401Z,23.4
2023-04-18T14:54:08.532Z,23.4
2023-04-18T14:55:24.666Z,23.4
2023-04-18T14:56:40.814Z,23.4
2023-04-18T14:57:56.947Z,23.4
2023-04-18T14:59:13.064Z,23.4
2023-04-18T15:00:29.202Z,23.4
2023-04-18T15:01:45.390Z,23.4
2023-04-18T15:03:00.647Z,23.4
2023-04-18T15:04:15.838Z,23.4
2023-04-18T15:05:31.982Z,23.4
2023-04-18T15:06:48.119Z,23.4
2023-04-18T15:08:04.267Z,23.4
2023-04-18T15:09:20.384Z,23.3
2023-04-18T15:10:36.525Z,23.3
2023-04-18T15:11:52.654Z,23.3
2023-04-18T15:13:08.805Z,23.3
2023-04-18T15:14:24.937Z,23.3
2023-04-18T15:15:41.086Z,23.3
2023-04-18T15:16:57.200Z,23.3
2023-04-18T15:18:13.341Z,23.3
2023-04-18T15:19:29.500Z,23.3
2023-04-18T15:20:45.620Z,23.3
2023-04-18T15:22:01.755Z,23.3
2023-04-18T15:23:17.899Z,23.3
2023-04-18T15:24:34.033Z,23.3
2023-04-18T15:25:50.165Z,23.2
2023-04-18T15:27:06.306Z,23.2
2023-04-18T15:28:22.439Z,23.3
2023-04-18T15:29:38.567Z,23.3
2023-04-18T15:30:54.706Z,23.3
2023-04-18T15:32:10.864Z,23.3
2023-04-18T15:33:27.000Z,23.2
2023-04-18T15:34:43.114Z,23.2
2023-04-18T15:35:59.310Z,23.2
2023-04-18T15:37:14.548Z,23.2
2023-04-18T15:38:30.748Z,23.1
2023-04-18T15:39:45.956Z,23.1
2023-04-18T15:41:02.083Z,23.1
2023-04-18T15:42:18.244Z,23
2023-04-18T15:43:34.375Z,23
2023-04-18T15:44:50.500Z,23
2023-04-18T15:46:06.644Z,23
2023-04-18T15:47:22.763Z,23
2023-04-18T15:48:38.914Z,22.9
2023-04-18T15:49:55.042Z,22.9
2023-04-18T15:51:11.179Z,22.9
2023-04-18T15:52:27.316Z,22.9
2023-04-18T15:53:43.444Z,22.9
2023-04-18T15:54:59.592Z,22.9
2023-04-18T15:56:15.733Z,22.8
2023-04-18T15:57:31.875Z,22.8
2023-04-18T15:58:47.995Z,22.8
2023-04-18T16:00:04.127Z,22.8
2023-04-18T16:01:20.271Z,22.7
2023-04-18T16:02:36.406Z,22.7
2023-04-18T16:03:52.545Z,22.7
2023-04-18T16:05:08.675Z,22.7
2023-04-18T16:06:24.807Z,22.7
2023-04-18T16:07:40.964Z,22.7
2023-04-18T16:08:57.093Z,22.6
2023-04-18T16:10:13.218Z,22.6
2023-04-18T16:11:29.424Z,22.6
2023-04-18T16:12:44.661Z,22.6
2023-04-18T16:13:59.874Z,22.6
2023-04-18T16:15:15.015Z,22.6
2023-04-18T16:16:31.165Z,22.6
2023-04-18T16:17:47.296Z,22.6
2023-04-18T16:19:03.429Z,22.6
2023-04-18T16:20:19.555Z,22.5
2023-04-18T16:21:35.690Z,22.5
2023-04-18T16:22:51.842Z,22.5
2023-04-18T16:24:07.973Z,22.5
2023-04-18T16:25:24.109Z,22.5
2023-04-18T16:26:40.249Z,22.5
2023-04-18T16:27:56.376Z,22.4
2023-04-18T16:29:12.518Z,22.4
2023-04-18T16:30:28.653Z,22.4
2023-04-18T16:31:44.801Z,22.4
2023-04-18T16:33:00.917Z,22.4
2023-04-18T16:34:17.062Z,22.4
2023-04-18T16:35:33.200Z,22.4
2023-04-18T16:36:49.338Z,22.3
2023-04-18T16:38:05.479Z,22.3
2023-04-18T16:39:21.611Z,22.3
2023-04-18T16:40:37.734Z,22.3
2023-04-18T16:41:53.892Z,22.3
2023-04-18T16:43:10.012Z,22.2
2023-04-18T16:44:26.146Z,22.2
2023-04-18T16:45:42.292Z,22.2
2023-04-18T16:46:58.414Z,22.2
2023-04-18T16:48:14.571Z,22.2
2023-04-18T16:49:30.707Z,22.1
2023-04-18T16:50:46.844Z,22.1
2023-04-18T16:52:02.972Z,22.1
2023-04-18T16:53:19.101Z,22.1
2023-04-18T16:54:35.248Z,22.1
2023-04-18T16:55:51.384Z,22.1
2023-04-18T16:57:07.522Z,22.1
2023-04-18T16:58:23.647Z,22.1
2023-04-18T16:59:39.791Z,22.1
2023-04-18T17:00:55.935Z,22
2023-04-18T17:02:12.130Z,22
2023-04-18T17:03:27.357Z,22
2023-04-18T17:04:42.563Z,22
2023-04-18T17:05:58.697Z,22
2023-04-18T17:07:14.000Z,22
2023-04-18T17:08:30.967Z,22